sensor_id;sensor_type;location;lat;lon;timestamp;temperature;humidity
66422;DHT22;53228;51.380;0.098;2023-07-24T00:00:44;13.40;99.90
66422;DHT22;53228;51.380;0.098;2023-07-24T00:03:12;13.30;99.90
66422;DHT22;53228;51.380;0.098;2023-07-24T00:05:40;13.30;99.90
66422;DHT22;53228;51.380;0.098;2023-07-24T00:08:07;13.30;99.90
66422;DHT22;53228;51.380;0.098;2023-07-24T00:10:35;13.30;99.90
66422;DHT22;53228;51.380;0.098;2023-07-24T00:13:03;13.30;99.90
66422;DHT22;53228;51.380;0.098;2023-07-24T00:15:30;13.20;99.90
66422;DHT22;53228;51.380;0.098;2023-07-24T00:17:58;13.20;99.90
66422;DHT22;53228;51.380;0.098;2023-07-24T00:20:26;13.20;99.90
66422;DHT22;53228;51.380;0.098;2023-07-24T00:22:54;13.20;99.90
66422;DHT22;53228;51.380;0.098;2023-07-24T00:25:22;13.10;99.90
66422;DHT22;53228;51.380;0.098;2023-07-24T00:27:50;13.10;99.90
66422;DHT22;53228;51.380;0.098;2023-07-24T00:30:17;13.10;99.90
66422;DHT22;53228;51.380;0.098;2023-07-24T00:32:45;13.10;99.90
66422;DHT22;53228;51.380;0.098;2023-07-24T00:35:13;13.10;99.90
66422;DHT22;53228;51.380;0.098;2023-07-24T00:37:40;13.10;99.90
66422;DHT22;53228;51.380;0.098;2023-07-24T00:40:08;13.00;99.90
66422;DHT22;53228;51.380;0.098;2023-07-24T00:42:36;13.00;99.90
66422;DHT22;53228;51.380;0.098;2023-07-24T00:45:04;13.00;99.90
66422;DHT22;53228;51.380;0.098;2023-07-24T00:47:32;13.00;99.90
66422;DHT22;53228;51.380;0.098;2023-07-24T00:50:00;13.00;99.90
66422;DHT22;53228;51.380;0.098;2023-07-24T00:52:28;13.00;99.90
66422;DHT22;53228;51.380;0.098;2023-07-24T00:54:55;13.00;99.90
66422;DHT22;53228;51.380;0.098;2023-07-24T00:57:23;13.00;99.90
66422;DHT22;53228;51.380;0.098;2023-07-24T00:59:51;12.90;99.90
66422;DHT22;53228;51.380;0.098;2023-07-24T01:02:19;12.90;99.90
66422;DHT22;53228;51.380;0.098;2023-07-24T01:04:47;12.90;99.90
66422;DHT22;53228;51.380;0.098;2023-07-24T01:07:16;12.90;99.90
66422;DHT22;53228;51.380;0.098;2023-07-24T01:09:44;12.90;99.90
66422;DHT22;53228;51.380;0.098;2023-07-24T01:12:20;12.80;99.90
66422;DHT22;53228;51.380;0.098;2023-07-24T01:14:57;12.80;99.90
66422;DHT22;53228;51.380;0.098;2023-07-24T01:17:28;12.80;99.90
66422;DHT22;53228;51.380;0.098;2023-07-24T01:19:59;12.70;99.90
66422;DHT22;53228;51.380;0.098;2023-07-24T01:27:29;12.70;99.90
66422;DHT22;53228;51.380;0.098;2023-07-24T01:29:56;12.60;99.90
66422;DHT22;53228;51.380;0.098;2023-07-24T01:32:24;12.50;99.90
66422;DHT22;53228;51.380;0.098;2023-07-24T01:34:52;12.50;99.90
66422;DHT22;53228;51.380;0.098;2023-07-24T01:37:22;12.60;99.90
66422;DHT22;53228;51.380;0.098;2023-07-24T01:39:51;12.50;99.90
66422;DHT22;53228;51.380;0.098;2023-07-24T01:42:20;12.50;99.90
66422;DHT22;53228;51.380;0.098;2023-07-24T01:44:52;12.50;99.90
66422;DHT22;53228;51.380;0.098;2023-07-24T01:47:20;12.50;99.90
66422;DHT22;53228;51.380;0.098;2023-07-24T01:49:48;12.40;99.90
66422;DHT22;53228;51.380;0.098;2023-07-24T01:52:16;12.40;99.90
66422;DHT22;53228;51.380;0.098;2023-07-24T01:54:43;12.40;99.90
66422;DHT22;53228;51.380;0.098;2023-07-24T01:57:11;12.40;99.90
66422;DHT22;53228;51.380;0.098;2023-07-24T01:59:39;12.40;99.90
66422;DHT22;53228;51.380;0.098;2023-07-24T02:02:06;12.40;99.90
66422;DHT22;53228;51.380;0.098;2023-07-24T02:04:34;12.40;99.90
66422;DHT22;53228;51.380;0.098;2023-07-24T02:07:03;12.40;99.90
66422;DHT22;53228;51.380;0.098;2023-07-24T02:09:31;12.40;99.90
66422;DHT22;53228;51.380;0.098;2023-07-24T02:11:59;12.30;99.90
66422;DHT22;53228;51.380;0.098;2023-07-24T02:14:27;12.30;99.90
66422;DHT22;53228;51.380;0.098;2023-07-24T02:16:55;12.30;99.90
66422;DHT22;53228;51.380;0.098;2023-07-24T02:19:23;12.30;99.90
66422;DHT22;53228;51.380;0.098;2023-07-24T02:21:50;12.20;99.90
66422;DHT22;53228;51.380;0.098;2023-07-24T02:24:18;11.70;99.90
66422;DHT22;53228;51.380;0.098;2023-07-24T02:26:46;12.20;99.90
66422;DHT22;53228;51.380;0.098;2023-07-24T02:29:13;12.20;99.90
66422;DHT22;53228;51.380;0.098;2023-07-24T02:31:43;12.20;99.90
66422;DHT22;53228;51.380;0.098;2023-07-24T02:34:10;12.20;99.90
66422;DHT22;53228;51.380;0.098;2023-07-24T02:36:40;12.20;99.90
66422;DHT22;53228;51.380;0.098;2023-07-24T02:39:09;12.10;99.90
66422;DHT22;53228;51.380;0.098;2023-07-24T02:41:36;12.10;99.90
66422;DHT22;53228;51.380;0.098;2023-07-24T02:44:04;12.10;99.90
66422;DHT22;53228;51.380;0.098;2023-07-24T02:46:32;12.20;99.90
66422;DHT22;53228;51.380;0.098;2023-07-24T02:48:59;12.10;99.90
66422;DHT22;53228;51.380;0.098;2023-07-24T02:51:27;12.10;99.90
66422;DHT22;53228;51.380;0.098;2023-07-24T02:53:55;12.10;99.90
66422;DHT22;53228;51.380;0.098;2023-07-24T02:56:22;12.10;99.90
66422;DHT22;53228;51.380;0.098;2023-07-24T02:58:50;12.10;99.90
66422;DHT22;53228;51.380;0.098;2023-07-24T03:01:18;12.10;99.90
66422;DHT22;53228;51.380;0.098;2023-07-24T03:03:45;12.10;99.90
66422;DHT22;53228;51.380;0.098;2023-07-24T03:06:13;12.10;99.90
66422;DHT22;53228;51.380;0.098;2023-07-24T03:08:41;12.10;99.90
66422;DHT22;53228;51.380;0.098;2023-07-24T03:11:08;12.10;99.90
66422;DHT22;53228;51.380;0.098;2023-07-24T03:13:36;12.10;99.90
66422;DHT22;53228;51.380;0.098;2023-07-24T03:16:04;12.10;99.90
66422;DHT22;53228;51.380;0.098;2023-07-24T03:18:32;12.10;99.90
66422;DHT22;53228;51.380;0.098;2023-07-24T03:20:59;12.10;99.90
66422;DHT22;53228;51.380;0.098;2023-07-24T03:23:29;12.10;99.90
66422;DHT22;53228;51.380;0.098;2023-07-24T03:25:57;12.10;99.90
66422;DHT22;53228;51.380;0.098;2023-07-24T03:28:25;12.10;99.90
66422;DHT22;53228;51.380;0.098;2023-07-24T03:30:53;12.10;99.90
66422;DHT22;53228;51.380;0.098;2023-07-24T03:33:22;12.10;99.90
66422;DHT22;53228;51.380;0.098;2023-07-24T03:35:51;12.10;99.90
66422;DHT22;53228;51.380;0.098;2023-07-24T03:38:18;12.10;99.90
66422;DHT22;53228;51.380;0.098;2023-07-24T03:40:46;12.10;99.90
66422;DHT22;53228;51.380;0.098;2023-07-24T03:43:15;12.10;99.90
66422;DHT22;53228;51.380;0.098;2023-07-24T03:45:42;12.10;99.90
66422;DHT22;53228;51.380;0.098;2023-07-24T03:48:11;12.10;99.90
66422;DHT22;53228;51.380;0.098;2023-07-24T03:50:40;12.00;99.90
66422;DHT22;53228;51.380;0.098;2023-07-24T03:53:08;12.00;99.90
66422;DHT22;53228;51.380;0.098;2023-07-24T03:55:35;12.00;99.90
66422;DHT22;53228;51.380;0.098;2023-07-24T03:58:04;12.00;99.90
66422;DHT22;53228;51.380;0.098;2023-07-24T04:00:31;11.90;99.90
66422;DHT22;53228;51.380;0.098;2023-07-24T04:02:59;11.90;99.90
66422;DHT22;53228;51.380;0.098;2023-07-24T04:05:27;11.90;99.90
66422;DHT22;53228;51.380;0.098;2023-07-24T04:07:55;11.90;99.90
66422;DHT22;53228;51.380;0.098;2023-07-24T04:10:22;11.90;99.90
66422;DHT22;53228;51.380;0.098;2023-07-24T04:12:50;11.90;99.90
66422;DHT22;53228;51.380;0.098;2023-07-24T04:15:18;11.90;99.90
66422;DHT22;53228;51.380;0.098;2023-07-24T04:17:46;11.90;99.90
66422;DHT22;53228;51.380;0.098;2023-07-24T04:20:14;11.90;99.90
66422;DHT22;53228;51.380;0.098;2023-07-24T04:22:41;11.90;99.90
66422;DHT22;53228;51.380;0.098;2023-07-24T04:25:09;11.90;99.90
66422;DHT22;53228;51.380;0.098;2023-07-24T04:27:36;11.90;99.90
66422;DHT22;53228;51.380;0.098;2023-07-24T04:30:04;11.90;99.90
66422;DHT22;53228;51.380;0.098;2023-07-24T04:32:32;11.90;99.90
66422;DHT22;53228;51.380;0.098;2023-07-24T04:35:00;11.90;99.90
66422;DHT22;53228;51.380;0.098;2023-07-24T04:37:28;11.90;99.90
66422;DHT22;53228;51.380;0.098;2023-07-24T04:39:55;11.90;99.90
66422;DHT22;53228;51.380;0.098;2023-07-24T04:42:23;11.90;99.90
66422;DHT22;53228;51.380;0.098;2023-07-24T04:44:51;11.90;99.90
66422;DHT22;53228;51.380;0.098;2023-07-24T04:47:19;11.90;99.90
66422;DHT22;53228;51.380;0.098;2023-07-24T04:49:46;11.90;99.90
66422;DHT22;53228;51.380;0.098;2023-07-24T04:52:14;11.90;99.90
66422;DHT22;53228;51.380;0.098;2023-07-24T04:54:42;11.90;99.90
66422;DHT22;53228;51.380;0.098;2023-07-24T04:57:09;11.90;99.90
66422;DHT22;53228;51.380;0.098;2023-07-24T04:59:37;12.00;99.90
66422;DHT22;53228;51.380;0.098;2023-07-24T05:02:05;12.00;99.90
66422;DHT22;53228;51.380;0.098;2023-07-24T05:04:32;12.00;99.90
66422;DHT22;53228;51.380;0.098;2023-07-24T05:07:00;12.00;99.90
66422;DHT22;53228;51.380;0.098;2023-07-24T05:09:28;12.00;99.90
66422;DHT22;53228;51.380;0.098;2023-07-24T05:11:55;12.00;99.90
66422;DHT22;53228;51.380;0.098;2023-07-24T05:14:23;12.00;99.90
66422;DHT22;53228;51.380;0.098;2023-07-24T05:16:50;12.40;99.90
66422;DHT22;53228;51.380;0.098;2023-07-24T05:19:18;12.00;99.90
66422;DHT22;53228;51.380;0.098;2023-07-24T05:21:46;12.10;99.90
66422;DHT22;53228;51.380;0.098;2023-07-24T05:24:14;12.10;99.90
66422;DHT22;53228;51.380;0.098;2023-07-24T05:26:41;12.10;99.90
66422;DHT22;53228;51.380;0.098;2023-07-24T05:29:09;12.10;99.90
66422;DHT22;53228;51.380;0.098;2023-07-24T05:31:36;12.10;99.90
66422;DHT22;53228;51.380;0.098;2023-07-24T05:34:04;12.10;99.90
66422;DHT22;53228;51.380;0.098;2023-07-24T05:36:32;12.20;99.90
66422;DHT22;53228;51.380;0.098;2023-07-24T05:39:00;12.20;99.90
66422;DHT22;53228;51.380;0.098;2023-07-24T05:41:27;12.20;99.90
66422;DHT22;53228;51.380;0.098;2023-07-24T05:43:55;12.20;99.90
66422;DHT22;53228;51.380;0.098;2023-07-24T05:46:23;12.30;99.90
66422;DHT22;53228;51.380;0.098;2023-07-24T05:48:50;12.30;99.90
66422;DHT22;53228;51.380;0.098;2023-07-24T05:51:18;12.30;99.90
66422;DHT22;53228;51.380;0.098;2023-07-24T05:53:46;12.30;99.90
66422;DHT22;53228;51.380;0.098;2023-07-24T05:56:14;12.30;99.90
66422;DHT22;53228;51.380;0.098;2023-07-24T05:58:41;12.30;99.90
66422;DHT22;53228;51.380;0.098;2023-07-24T06:01:09;12.30;99.90
66422;DHT22;53228;51.380;0.098;2023-07-24T06:03:37;13.20;99.90
66422;DHT22;53228;51.380;0.098;2023-07-24T06:06:08;12.30;99.90
66422;DHT22;53228;51.380;0.098;2023-07-24T06:08:36;12.40;99.90
66422;DHT22;53228;51.380;0.098;2023-07-24T06:11:03;12.40;99.90
66422;DHT22;53228;51.380;0.098;2023-07-24T06:13:31;12.40;99.90
66422;DHT22;53228;51.380;0.098;2023-07-24T06:15:59;12.40;99.90
66422;DHT22;53228;51.380;0.098;2023-07-24T06:18:27;12.50;99.90
66422;DHT22;53228;51.380;0.098;2023-07-24T06:20:55;12.50;99.90
66422;DHT22;53228;51.380;0.098;2023-07-24T06:23:23;12.50;99.90
66422;DHT22;53228;51.380;0.098;2023-07-24T06:25:50;12.50;99.90
66422;DHT22;53228;51.380;0.098;2023-07-24T06:28:19;12.60;99.90
66422;DHT22;53228;51.380;0.098;2023-07-24T06:30:47;12.50;99.90
66422;DHT22;53228;51.380;0.098;2023-07-24T06:33:15;12.60;99.90
66422;DHT22;53228;51.380;0.098;2023-07-24T06:35:42;12.60;99.90
66422;DHT22;53228;51.380;0.098;2023-07-24T06:38:10;12.60;99.90
66422;DHT22;53228;51.380;0.098;2023-07-24T06:40:38;12.60;99.90
66422;DHT22;53228;51.380;0.098;2023-07-24T06:43:06;12.60;99.90
66422;DHT22;53228;51.380;0.098;2023-07-24T06:45:33;12.60;99.90
66422;DHT22;53228;51.380;0.098;2023-07-24T06:48:01;12.60;99.90
66422;DHT22;53228;51.380;0.098;2023-07-24T06:50:29;12.70;99.90
66422;DHT22;53228;51.380;0.098;2023-07-24T06:52:56;12.60;99.90
66422;DHT22;53228;51.380;0.098;2023-07-24T06:55:24;12.60;99.90
66422;DHT22;53228;51.380;0.098;2023-07-24T06:57:52;12.70;99.90
66422;DHT22;53228;51.380;0.098;2023-07-24T07:00:19;12.70;99.90
66422;DHT22;53228;51.380;0.098;2023-07-24T07:02:47;12.60;99.90
66422;DHT22;53228;51.380;0.098;2023-07-24T07:05:15;12.60;99.90
66422;DHT22;53228;51.380;0.098;2023-07-24T07:07:42;12.70;99.90
66422;DHT22;53228;51.380;0.098;2023-07-24T07:10:10;13.60;99.90
66422;DHT22;53228;51.380;0.098;2023-07-24T07:12:38;12.60;99.90
66422;DHT22;53228;51.380;0.098;2023-07-24T07:15:06;12.70;99.90
66422;DHT22;53228;51.380;0.098;2023-07-24T07:17:33;12.70;99.90
66422;DHT22;53228;51.380;0.098;2023-07-24T07:20:01;12.60;99.90
66422;DHT22;53228;51.380;0.098;2023-07-24T07:22:29;12.60;99.90
66422;DHT22;53228;51.380;0.098;2023-07-24T07:24:57;12.60;99.90
66422;DHT22;53228;51.380;0.098;2023-07-24T07:27:24;12.70;99.90
66422;DHT22;53228;51.380;0.098;2023-07-24T07:29:52;12.70;99.90
66422;DHT22;53228;51.380;0.098;2023-07-24T07:32:20;12.70;99.90
66422;DHT22;53228;51.380;0.098;2023-07-24T07:34:47;12.80;99.90
66422;DHT22;53228;51.380;0.098;2023-07-24T07:37:15;12.80;99.90
66422;DHT22;53228;51.380;0.098;2023-07-24T07:39:42;12.80;99.90
66422;DHT22;53228;51.380;0.098;2023-07-24T07:42:10;12.80;99.90
66422;DHT22;53228;51.380;0.098;2023-07-24T07:44:46;12.80;99.90
66422;DHT22;53228;51.380;0.098;2023-07-24T07:47:13;12.80;99.90
66422;DHT22;53228;51.380;0.098;2023-07-24T07:49:41;12.80;99.90
66422;DHT22;53228;51.380;0.098;2023-07-24T07:52:09;12.90;99.90
66422;DHT22;53228;51.380;0.098;2023-07-24T07:54:37;12.80;99.90
66422;DHT22;53228;51.380;0.098;2023-07-24T07:57:04;12.80;99.90
66422;DHT22;53228;51.380;0.098;2023-07-24T07:59:32;12.90;99.90
66422;DHT22;53228;51.380;0.098;2023-07-24T08:02:01;12.80;99.90
66422;DHT22;53228;51.380;0.098;2023-07-24T08:04:29;12.90;99.90
66422;DHT22;53228;51.380;0.098;2023-07-24T08:06:56;12.90;99.90
66422;DHT22;53228;51.380;0.098;2023-07-24T08:09:24;13.30;99.90
66422;DHT22;53228;51.380;0.098;2023-07-24T08:11:52;13.60;99.90
66422;DHT22;53228;51.380;0.098;2023-07-24T08:14:20;12.90;99.90
66422;DHT22;53228;51.380;0.098;2023-07-24T08:16:48;12.90;99.90
66422;DHT22;53228;51.380;0.098;2023-07-24T08:19:16;12.90;99.90
66422;DHT22;53228;51.380;0.098;2023-07-24T08:21:44;12.70;99.90
66422;DHT22;53228;51.380;0.098;2023-07-24T08:24:12;12.90;99.90
66422;DHT22;53228;51.380;0.098;2023-07-24T08:26:39;13.00;99.90
66422;DHT22;53228;51.380;0.098;2023-07-24T08:29:07;13.00;99.90
66422;DHT22;53228;51.380;0.098;2023-07-24T08:31:35;13.00;99.90
66422;DHT22;53228;51.380;0.098;2023-07-24T08:34:02;13.00;99.90
66422;DHT22;53228;51.380;0.098;2023-07-24T08:36:30;13.00;99.90
66422;DHT22;53228;51.380;0.098;2023-07-24T08:38:58;13.00;99.90
66422;DHT22;53228;51.380;0.098;2023-07-24T08:41:26;13.10;99.90
66422;DHT22;53228;51.380;0.098;2023-07-24T08:43:54;13.10;99.90
66422;DHT22;53228;51.380;0.098;2023-07-24T08:46:22;13.10;99.90
66422;DHT22;53228;51.380;0.098;2023-07-24T08:48:50;13.20;99.90
66422;DHT22;53228;51.380;0.098;2023-07-24T08:51:18;13.20;99.90
66422;DHT22;53228;51.380;0.098;2023-07-24T08:53:52;13.30;99.90
66422;DHT22;53228;51.380;0.098;2023-07-24T08:56:20;13.40;99.90
66422;DHT22;53228;51.380;0.098;2023-07-24T08:58:47;13.50;99.90
66422;DHT22;53228;51.380;0.098;2023-07-24T09:01:15;13.50;99.90
66422;DHT22;53228;51.380;0.098;2023-07-24T09:03:43;13.60;99.90
66422;DHT22;53228;51.380;0.098;2023-07-24T09:06:11;13.80;99.90
66422;DHT22;53228;51.380;0.098;2023-07-24T09:08:42;14.00;99.90
66422;DHT22;53228;51.380;0.098;2023-07-24T09:11:13;14.20;99.90
66422;DHT22;53228;51.380;0.098;2023-07-24T09:13:42;14.40;99.90
66422;DHT22;53228;51.380;0.098;2023-07-24T09:16:22;14.70;99.90
66422;DHT22;53228;51.380;0.098;2023-07-24T09:18:51;15.10;99.90
66422;DHT22;53228;51.380;0.098;2023-07-24T09:21:36;15.30;99.90
66422;DHT22;53228;51.380;0.098;2023-07-24T09:24:14;14.40;99.90
66422;DHT22;53228;51.380;0.098;2023-07-24T09:26:52;15.80;99.90
66422;DHT22;53228;51.380;0.098;2023-07-24T09:29:34;16.00;99.90
66422;DHT22;53228;51.380;0.098;2023-07-24T09:32:02;16.10;99.90
66422;DHT22;53228;51.380;0.098;2023-07-24T09:34:31;16.30;99.90
66422;DHT22;53228;51.380;0.098;2023-07-24T09:36:59;16.40;99.90
66422;DHT22;53228;51.380;0.098;2023-07-24T09:39:27;16.60;99.90
66422;DHT22;53228;51.380;0.098;2023-07-24T09:42:03;16.80;99.90
66422;DHT22;53228;51.380;0.098;2023-07-24T09:44:32;16.80;99.90
66422;DHT22;53228;51.380;0.098;2023-07-24T09:47:01;16.80;99.90
66422;DHT22;53228;51.380;0.098;2023-07-24T09:49:50;16.80;99.90
66422;DHT22;53228;51.380;0.098;2023-07-24T09:52:19;17.00;99.90
66422;DHT22;53228;51.380;0.098;2023-07-24T09:55:11;17.10;99.90
66422;DHT22;53228;51.380;0.098;2023-07-24T09:57:40;17.40;99.90
66422;DHT22;53228;51.380;0.098;2023-07-24T10:00:08;17.70;99.90
66422;DHT22;53228;51.380;0.098;2023-07-24T10:02:36;17.80;99.90
66422;DHT22;53228;51.380;0.098;2023-07-24T10:05:04;18.00;99.90
66422;DHT22;53228;51.380;0.098;2023-07-24T10:07:32;18.00;99.90
66422;DHT22;53228;51.380;0.098;2023-07-24T10:10:01;18.20;99.90
66422;DHT22;53228;51.380;0.098;2023-07-24T10:12:29;18.40;99.90
66422;DHT22;53228;51.380;0.098;2023-07-24T10:14:59;18.60;99.90
66422;DHT22;53228;51.380;0.098;2023-07-24T10:17:39;18.90;99.90
66422;DHT22;53228;51.380;0.098;2023-07-24T10:20:11;19.00;99.90
66422;DHT22;53228;51.380;0.098;2023-07-24T10:22:42;19.20;99.90
66422;DHT22;53228;51.380;0.098;2023-07-24T10:25:11;19.40;99.90
66422;DHT22;53228;51.380;0.098;2023-07-24T10:27:43;20.00;99.90
66422;DHT22;53228;51.380;0.098;2023-07-24T10:30:11;20.50;99.90
66422;DHT22;53228;51.380;0.098;2023-07-24T10:32:46;21.00;99.90
66422;DHT22;53228;51.380;0.098;2023-07-24T10:35:18;20.80;99.90
66422;DHT22;53228;51.380;0.098;2023-07-24T10:37:59;20.50;99.90
66422;DHT22;53228;51.380;0.098;2023-07-24T10:40:29;20.10;99.90
66422;DHT22;53228;51.380;0.098;2023-07-24T10:43:09;19.80;99.90
66422;DHT22;53228;51.380;0.098;2023-07-24T10:45:40;20.20;99.90
66422;DHT22;53228;51.380;0.098;2023-07-24T10:48:08;20.60;99.90
66422;DHT22;53228;51.380;0.098;2023-07-24T10:50:44;20.70;99.90
66422;DHT22;53228;51.380;0.098;2023-07-24T10:53:18;21.10;99.90
66422;DHT22;53228;51.380;0.098;2023-07-24T10:55:47;21.70;99.90
66422;DHT22;53228;51.380;0.098;2023-07-24T10:58:15;22.10;99.90
66422;DHT22;53228;51.380;0.098;2023-07-24T11:23:19;22.00;99.90
66422;DHT22;53228;51.380;0.098;2023-07-24T11:25:49;21.10;99.90
66422;DHT22;53228;51.380;0.098;2023-07-24T11:28:17;20.70;99.90
66422;DHT22;53228;51.380;0.098;2023-07-24T11:30:45;20.30;99.90
66422;DHT22;53228;51.380;0.098;2023-07-24T11:33:15;19.30;99.90
66422;DHT22;53228;51.380;0.098;2023-07-24T11:35:46;19.40;99.90
66422;DHT22;53228;51.380;0.098;2023-07-24T11:38:14;19.00;99.90
66422;DHT22;53228;51.380;0.098;2023-07-24T11:40:43;18.70;99.90
66422;DHT22;53228;51.380;0.098;2023-07-24T11:43:19;18.50;99.90
66422;DHT22;53228;51.380;0.098;2023-07-24T11:45:48;18.20;99.90
66422;DHT22;53228;51.380;0.098;2023-07-24T11:48:24;18.10;99.90
66422;DHT22;53228;51.380;0.098;2023-07-24T11:50:54;18.10;99.90
66422;DHT22;53228;51.380;0.098;2023-07-24T11:53:29;18.00;99.90
66422;DHT22;53228;51.380;0.098;2023-07-24T11:55:59;18.00;99.90
66422;DHT22;53228;51.380;0.098;2023-07-24T11:58:28;18.10;99.90
66422;DHT22;53228;51.380;0.098;2023-07-24T12:00:56;18.00;99.90
66422;DHT22;53228;51.380;0.098;2023-07-24T12:03:26;18.00;99.90
66422;DHT22;53228;51.380;0.098;2023-07-24T12:05:54;18.10;99.90
66422;DHT22;53228;51.380;0.098;2023-07-24T12:08:31;18.10;99.90
66422;DHT22;53228;51.380;0.098;2023-07-24T12:11:00;18.10;99.90
66422;DHT22;53228;51.380;0.098;2023-07-24T12:13:28;18.20;99.90
66422;DHT22;53228;51.380;0.098;2023-07-24T12:15:59;18.20;99.90
66422;DHT22;53228;51.380;0.098;2023-07-24T12:18:27;18.30;99.90
66422;DHT22;53228;51.380;0.098;2023-07-24T12:20:55;18.20;99.90
66422;DHT22;53228;51.380;0.098;2023-07-24T12:23:22;18.20;99.90
66422;DHT22;53228;51.380;0.098;2023-07-24T12:25:50;18.10;99.90
66422;DHT22;53228;51.380;0.098;2023-07-24T12:28:18;18.00;99.90
66422;DHT22;53228;51.380;0.098;2023-07-24T12:30:45;17.90;99.90
66422;DHT22;53228;51.380;0.098;2023-07-24T12:33:13;17.90;99.90
66422;DHT22;53228;51.380;0.098;2023-07-24T12:35:41;17.80;99.90
66422;DHT22;53228;51.380;0.098;2023-07-24T12:38:09;17.80;99.90
66422;DHT22;53228;51.380;0.098;2023-07-24T12:40:36;17.80;99.90
66422;DHT22;53228;51.380;0.098;2023-07-24T12:43:04;17.90;99.90
66422;DHT22;53228;51.380;0.098;2023-07-24T12:45:31;17.90;99.90
66422;DHT22;53228;51.380;0.098;2023-07-24T12:47:59;18.00;99.90
66422;DHT22;53228;51.380;0.098;2023-07-24T12:50:27;18.20;99.90
66422;DHT22;53228;51.380;0.098;2023-07-24T12:52:55;18.30;99.90
66422;DHT22;53228;51.380;0.098;2023-07-24T12:55:23;18.40;99.90
66422;DHT22;53228;51.380;0.098;2023-07-24T12:57:51;18.30;99.90
66422;DHT22;53228;51.380;0.098;2023-07-24T13:00:19;18.30;99.90
66422;DHT22;53228;51.380;0.098;2023-07-24T13:02:46;18.20;99.90
66422;DHT22;53228;51.380;0.098;2023-07-24T13:05:14;18.10;99.90
66422;DHT22;53228;51.380;0.098;2023-07-24T13:07:42;18.10;99.90
66422;DHT22;53228;51.380;0.098;2023-07-24T13:10:09;18.00;99.90
66422;DHT22;53228;51.380;0.098;2023-07-24T13:12:37;18.10;99.90
66422;DHT22;53228;51.380;0.098;2023-07-24T13:15:05;18.30;99.90
66422;DHT22;53228;51.380;0.098;2023-07-24T13:17:33;18.40;99.90
66422;DHT22;53228;51.380;0.098;2023-07-24T13:20:01;18.50;99.90
66422;DHT22;53228;51.380;0.098;2023-07-24T13:22:28;18.70;99.90
66422;DHT22;53228;51.380;0.098;2023-07-24T13:24:56;18.90;99.90
66422;DHT22;53228;51.380;0.098;2023-07-24T13:27:24;19.00;99.90
66422;DHT22;53228;51.380;0.098;2023-07-24T13:29:51;19.00;99.90
66422;DHT22;53228;51.380;0.098;2023-07-24T13:32:19;19.10;99.90
66422;DHT22;53228;51.380;0.098;2023-07-24T13:34:47;19.40;99.90
66422;DHT22;53228;51.380;0.098;2023-07-24T13:37:15;19.60;99.90
66422;DHT22;53228;51.380;0.098;2023-07-24T13:39:43;19.80;99.90
66422;DHT22;53228;51.380;0.098;2023-07-24T13:42:10;19.80;99.90
66422;DHT22;53228;51.380;0.098;2023-07-24T13:44:38;19.80;99.90
66422;DHT22;53228;51.380;0.098;2023-07-24T13:47:06;19.80;99.90
66422;DHT22;53228;51.380;0.098;2023-07-24T13:49:33;19.70;99.90
66422;DHT22;53228;51.380;0.098;2023-07-24T13:52:01;19.70;99.90
66422;DHT22;53228;51.380;0.098;2023-07-24T13:54:28;19.70;99.90
66422;DHT22;53228;51.380;0.098;2023-07-24T13:56:56;19.70;99.90
66422;DHT22;53228;51.380;0.098;2023-07-24T13:59:23;19.70;99.90
66422;DHT22;53228;51.380;0.098;2023-07-24T14:01:51;19.80;99.90
66422;DHT22;53228;51.380;0.098;2023-07-24T14:04:19;19.80;99.90
66422;DHT22;53228;51.380;0.098;2023-07-24T14:06:46;19.80;99.90
66422;DHT22;53228;51.380;0.098;2023-07-24T14:09:14;19.80;99.90
66422;DHT22;53228;51.380;0.098;2023-07-24T14:11:42;19.80;99.90
66422;DHT22;53228;51.380;0.098;2023-07-24T14:14:09;19.80;99.90
66422;DHT22;53228;51.380;0.098;2023-07-24T14:16:38;19.70;99.90
66422;DHT22;53228;51.380;0.098;2023-07-24T14:19:09;19.60;99.90
66422;DHT22;53228;51.380;0.098;2023-07-24T14:21:36;19.60;99.90
66422;DHT22;53228;51.380;0.098;2023-07-24T14:24:04;19.60;99.90
66422;DHT22;53228;51.380;0.098;2023-07-24T14:26:32;19.60;99.90
66422;DHT22;53228;51.380;0.098;2023-07-24T14:29:00;19.70;99.90
66422;DHT22;53228;51.380;0.098;2023-07-24T14:31:28;19.70;99.90
66422;DHT22;53228;51.380;0.098;2023-07-24T14:33:57;19.70;99.90
66422;DHT22;53228;51.380;0.098;2023-07-24T14:36:24;19.70;99.90
66422;DHT22;53228;51.380;0.098;2023-07-24T14:38:54;19.80;99.90
66422;DHT22;53228;51.380;0.098;2023-07-24T14:41:21;19.90;99.90
66422;DHT22;53228;51.380;0.098;2023-07-24T14:43:49;19.90;99.90
66422;DHT22;53228;51.380;0.098;2023-07-24T14:46:17;19.90;99.90
66422;DHT22;53228;51.380;0.098;2023-07-24T14:48:44;19.90;99.90
66422;DHT22;53228;51.380;0.098;2023-07-24T14:51:12;19.90;99.90
66422;DHT22;53228;51.380;0.098;2023-07-24T14:53:40;19.90;99.90
66422;DHT22;53228;51.380;0.098;2023-07-24T14:56:08;19.80;99.90
66422;DHT22;53228;51.380;0.098;2023-07-24T14:58:35;19.80;99.90
66422;DHT22;53228;51.380;0.098;2023-07-24T15:01:04;19.70;99.90
66422;DHT22;53228;51.380;0.098;2023-07-24T15:03:32;19.60;99.90
66422;DHT22;53228;51.380;0.098;2023-07-24T15:06:00;19.50;99.90
66422;DHT22;53228;51.380;0.098;2023-07-24T15:08:32;19.40;99.90
66422;DHT22;53228;51.380;0.098;2023-07-24T15:11:00;19.40;99.90
66422;DHT22;53228;51.380;0.098;2023-07-24T15:13:28;19.20;99.90
66422;DHT22;53228;51.380;0.098;2023-07-24T15:15:56;19.00;99.90
66422;DHT22;53228;51.380;0.098;2023-07-24T15:18:24;19.00;99.90
66422;DHT22;53228;51.380;0.098;2023-07-24T15:20:51;18.90;99.90
66422;DHT22;53228;51.380;0.098;2023-07-24T15:23:21;18.90;99.90
66422;DHT22;53228;51.380;0.098;2023-07-24T15:25:48;19.00;99.90
66422;DHT22;53228;51.380;0.098;2023-07-24T15:28:16;19.00;99.90
66422;DHT22;53228;51.380;0.098;2023-07-24T15:30:44;19.20;99.90
66422;DHT22;53228;51.380;0.098;2023-07-24T15:33:12;19.20;99.90
66422;DHT22;53228;51.380;0.098;2023-07-24T15:35:39;19.30;99.90
66422;DHT22;53228;51.380;0.098;2023-07-24T15:38:07;19.30;99.90
66422;DHT22;53228;51.380;0.098;2023-07-24T15:40:35;19.30;99.90
66422;DHT22;53228;51.380;0.098;2023-07-24T15:43:02;19.20;99.90
66422;DHT22;53228;51.380;0.098;2023-07-24T15:45:30;19.20;99.90
66422;DHT22;53228;51.380;0.098;2023-07-24T15:47:58;19.10;99.90
66422;DHT22;53228;51.380;0.098;2023-07-24T15:50:26;18.90;99.90
66422;DHT22;53228;51.380;0.098;2023-07-24T15:52:53;18.80;99.90
66422;DHT22;53228;51.380;0.098;2023-07-24T15:55:21;18.70;99.90
66422;DHT22;53228;51.380;0.098;2023-07-24T15:57:49;18.50;99.90
66422;DHT22;53228;51.380;0.098;2023-07-24T16:00:16;18.30;99.90
66422;DHT22;53228;51.380;0.098;2023-07-24T16:02:44;18.30;99.90
66422;DHT22;53228;51.380;0.098;2023-07-24T16:05:19;18.20;99.90